Time;durP1;ratioP1;P1;durP2;ratioP2;P2;SDS_P1;SDS_P2;PMS_P1;PMS_P2;Temp;Humidity;BMP_temperature;BMP_pressure;BME280_temperature;BME280_humidity;BME280_pressure;Samples;Min_cycle;Max_cycle;Signal;HPM_P1;HPM_P2
2023/12/09 00:09:39;;;;;;;30.40;9.02;;;7.90;99.90;;;;;;20719941;28;20049;-50
2023/12/09 00:19:40;;;;;;;31.02;8.50;;;8.00;99.90;;;;;;20746619;28;20399;-49
2023/12/09 00:29:40;;;;;;;25.77;7.95;;;7.90;99.90;;;;;;20746315;28;20110;-49
2023/12/09 00:39:41;;;;;;;28.73;8.15;;;7.90;99.90;;;;;;20745277;28;20053;-49
2023/12/09 00:49:41;;;;;;;26.17;7.15;;;8.00;99.90;;;;;;20742064;28;20487;-49
2023/12/09 00:59:42;;;;;;;26.60;8.48;;;7.90;99.90;;;;;;20722535;28;20054;-49
2023/12/09 01:09:42;;;;;;;23.98;8.05;;;7.90;99.90;;;;;;20731324;28;20049;-48
2023/12/09 01:19:43;;;;;;;25.88;8.48;;;7.90;99.90;;;;;;20734547;28;20046;-49
2023/12/09 01:29:44;;;;;;;29.45;8.50;;;7.90;99.90;;;;;;20734756;28;20033;-49
2023/12/09 01:39:44;;;;;;;25.13;8.15;;;7.90;99.90;;;;;;20733892;28;20038;-49
2023/12/09 01:49:46;;;;;;;30.20;8.15;;;7.90;99.90;;;;;;20728687;28;20116;-48
2023/12/09 01:59:46;;;;;;;29.15;7.63;;;7.90;99.90;;;;;;20725619;28;20082;-49
2023/12/09 02:09:47;;;;;;;29.48;7.43;;;7.90;99.90;;;;;;20722589;28;20197;-48
2023/12/09 02:19:48;;;;;;;23.23;7.00;;;7.70;99.90;;;;;;20731472;28;20405;-49
2023/12/09 02:30:15;;;;;;;23.42;6.45;;;7.50;99.90;;;;;;20732125;28;20613;-48
2023/12/09 02:40:17;;;;;;;19.13;6.25;;;7.50;99.90;;;;;;20708600;28;20643;-49
2023/12/09 02:50:17;;;;;;;22.40;6.30;;;7.50;99.90;;;;;;20724080;28;20128;-49
2023/12/09 03:00:18;;;;;;;23.13;6.35;;;7.50;99.90;;;;;;20723438;28;20049;-49
2023/12/09 03:10:18;;;;;;;18.52;6.28;;;7.30;99.90;;;;;;20725670;28;20041;-49
2023/12/09 03:20:20;;;;;;;21.33;5.95;;;7.30;99.90;;;;;;20721432;28;20523;-49
2023/12/09 03:30:21;;;;;;;26.25;6.20;;;7.20;99.90;;;;;;20722531;28;20037;-48
2023/12/09 03:40:21;;;;;;;27.60;6.03;;;7.20;99.90;;;;;;20711361;28;20092;-49
2023/12/09 03:50:22;;;;;;;25.75;5.63;;;7.20;99.90;;;;;;20706271;28;20155;-49
2023/12/09 04:00:22;;;;;;;21.77;6.32;;;7.20;99.90;;;;;;20728486;28;20041;-49
2023/12/09 04:10:23;;;;;;;20.27;5.72;;;7.00;99.90;;;;;;20721999;28;20542;-48
2023/12/09 04:20:24;;;;;;;21.75;6.55;;;7.00;99.90;;;;;;20719026;28;20487;-49
2023/12/09 04:30:24;;;;;;;25.73;6.55;;;6.90;99.90;;;;;;20723615;28;20042;-48
2023/12/09 04:40:25;;;;;;;24.40;7.20;;;7.00;99.90;;;;;;20695576;28;20267;-49
2023/12/09 04:50:26;;;;;;;27.10;7.43;;;6.90;99.90;;;;;;20723062;28;20495;-49
2023/12/09 05:00:26;;;;;;;24.20;7.55;;;6.90;99.90;;;;;;20736568;28;20578;-49
2023/12/09 05:10:27;;;;;;;23.98;7.68;;;7.00;99.90;;;;;;20738123;28;20200;-49
2023/12/09 05:20:27;;;;;;;27.75;8.13;;;6.90;99.90;;;;;;20719336;28;20053;-49
2023/12/09 05:30:28;;;;;;;22.35;6.63;;;6.90;99.90;;;;;;20650984;28;20053;-48
2023/12/09 05:40:29;;;;;;;29.88;6.57;;;7.10;99.90;;;;;;20708832;28;20403;-49
2023/12/09 05:50:29;;;;;;;29.35;7.28;;;7.10;99.90;;;;;;20730494;28;20034;-49
2023/12/09 06:00:30;;;;;;;25.63;6.63;;;7.20;99.90;;;;;;20731494;28;20557;-49
2023/12/09 06:10:31;;;;;;;25.95;7.07;;;7.20;99.90;;;;;;20727004;28;20069;-49
2023/12/09 06:20:31;;;;;;;20.55;7.55;;;7.30;99.90;;;;;;20733926;28;20412;-49
2023/12/09 06:30:33;;;;;;;30.45;8.70;;;7.30;99.90;;;;;;20730755;28;20038;-48
2023/12/09 06:40:33;;;;;;;33.28;9.05;;;7.50;99.90;;;;;;20722481;28;20584;-48
2023/12/09 06:50:34;;;;;;;22.40;8.52;;;7.50;99.90;;;;;;20724132;28;20128;-49
2023/12/09 07:00:36;;;;;;;28.20;9.57;;;7.50;99.90;;;;;;20716103;28;20141;-48
2023/12/09 07:10:36;;;;;;;22.15;8.48;;;7.60;99.90;;;;;;20735229;28;20518;-49
2023/12/09 07:20:37;;;;;;;30.05;9.25;;;7.60;99.90;;;;;;20726939;28;20733;-49
2023/12/09 07:30:37;;;;;;;27.27;8.93;;;7.80;99.90;;;;;;20732588;28;20100;-49
2023/12/09 07:40:38;;;;;;;25.45;8.23;;;7.70;99.90;;;;;;20726659;28;20145;-48
2023/12/09 07:50:38;;;;;;;26.27;9.67;;;7.80;99.90;;;;;;20714250;28;20176;-49
2023/12/09 08:00:39;;;;;;;24.50;7.80;;;7.90;99.90;;;;;;20724028;28;20525;-49
2023/12/09 08:10:40;;;;;;;18.23;6.32;;;7.90;99.90;;;;;;20731732;28;20041;-49
2023/12/09 08:20:40;;;;;;;26.45;6.78;;;8.00;99.90;;;;;;20722259;28;20049;-49
2023/12/09 08:30:41;;;;;;;24.50;6.70;;;7.90;99.90;;;;;;20741561;28;20034;-49
2023/12/09 08:40:42;;;;;;;20.00;5.75;;;8.00;99.90;;;;;;20739211;28;20124;-49
2023/12/09 08:50:42;;;;;;;19.90;5.10;;;8.10;97.60;;;;;;20739586;28;20499;-49
2023/12/09 09:00:43;;;;;;;21.95;4.60;;;8.10;96.00;;;;;;20729940;28;20099;-48
2023/12/09 09:10:45;;;;;;;12.52;4.13;;;8.10;97.40;;;;;;20651596;28;20141;-49
2023/12/09 09:20:45;;;;;;;17.38;5.13;;;8.10;94.90;;;;;;20629520;28;20531;-49
2023/12/09 09:30:46;;;;;;;20.05;4.03;;;8.10;96.50;;;;;;20649922;28;20046;-49
2023/12/09 09:40:47;;;;;;;20.38;4.05;;;8.20;93.60;;;;;;20628426;28;20460;-49
2023/12/09 09:50:55;;;;;;;15.13;3.95;;;8.30;86.90;;;;;;20652434;28;20492;-49
2023/12/09 10:00:57;;;;;;;19.45;4.65;;;8.30;90.20;;;;;;20673454;28;20472;-49
2023/12/09 10:10:57;;;;;;;12.55;3.55;;;8.50;81.60;;;;;;20728416;28;20053;-49
2023/12/09 10:20:58;;;;;;;10.88;3.00;;;8.50;74.50;;;;;;20677163;28;20073;-49
2023/12/09 10:31:00;;;;;;;17.77;3.78;;;8.70;71.00;;;;;;20634046;28;20083;-49
2023/12/09 10:41:04;;;;;;;12.45;2.88;;;8.80;65.10;;;;;;20637057;28;20037;-49
2023/12/09 10:51:04;;;;;;;14.25;2.97;;;8.90;61.70;;;;;;20654129;28;20050;-49
2023/12/09 11:01:07;;;;;;;12.20;2.83;;;8.90;56.20;;;;;;20636213;28;20038;-49
2023/12/09 11:11:08;;;;;;;11.43;2.20;;;9.00;51.40;;;;;;20709069;28;20539;-49
2023/12/09 11:21:09;;;;;;;7.43;2.00;;;9.10;43.90;;;;;;20740087;28;20044;-49
2023/12/09 11:31:09;;;;;;;9.93;2.15;;;9.10;44.90;;;;;;20735096;28;20038;-49
2023/12/09 11:41:10;;;;;;;9.52;2.13;;;9.20;43.30;;;;;;20729785;28;20482;-49
2023/12/09 11:51:11;;;;;;;9.05;2.20;;;9.20;50.50;;;;;;20717592;28;20578;-49
2023/12/09 12:01:12;;;;;;;8.05;1.58;;;9.10;64.90;;;;;;20728481;28;20048;-49
2023/12/09 12:11:15;;;;;;;6.87;1.43;;;8.90;92.70;;;;;;20762979;28;20065;-49
2023/12/09 12:21:16;;;;;;;8.48;2.38;;;8.70;99.90;;;;;;20685474;28;21194;-48
2023/12/09 12:31:17;;;;;;;5.32;1.45;;;8.70;99.90;;;;;;20679599;28;20122;-48
2023/12/09 12:41:18;;;;;;;4.07;1.10;;;8.70;99.90;;;;;;20674910;28;20457;-58
2023/12/09 12:51:18;;;;;;;5.23;1.20;;;8.70;99.90;;;;;;20673984;28;20046;-47
2023/12/09 13:01:19;;;;;;;3.70;1.60;;;8.60;99.90;;;;;;20677000;28;20886;-47
2023/12/09 13:11:20;;;;;;;3.92;0.95;;;8.60;99.90;;;;;;20742006;28;20050;-48
2023/12/09 13:21:20;;;;;;;4.47;1.10;;;8.40;99.90;;;;;;20739119;28;20037;-49
2023/12/09 13:31:21;;;;;;;2.70;0.82;;;8.40;99.90;;;;;;20752613;28;20469;-49
2023/12/09 13:41:22;;;;;;;4.65;1.00;;;8.30;99.90;;;;;;20751874;28;20491;-49
2023/12/09 13:51:23;;;;;;;2.58;0.68;;;8.30;99.90;;;;;;20755033;28;20100;-48
2023/12/09 14:01:24;;;;;;;3.28;0.63;;;8.20;99.90;;;;;;20749659;28;20428;-49
2023/12/09 14:11:27;;;;;;;2.35;1.20;;;8.20;99.90;;;;;;20747392;28;20077;-48
2023/12/09 14:21:27;;;;;;;2.85;0.70;;;8.10;99.90;;;;;;20745662;28;20497;-49
2023/12/09 14:31:28;;;;;;;3.05;0.80;;;8.20;99.90;;;;;;20746958;28;20041;-49
2023/12/09 14:41:28;;;;;;;2.10;0.57;;;8.20;99.90;;;;;;20708671;28;20140;-48
2023/12/09 14:51:29;;;;;;;2.08;0.63;;;8.10;99.90;;;;;;20665725;28;20045;-48
2023/12/09 15:01:30;;;;;;;1.80;0.60;;;8.00;99.90;;;;;;20665971;28;20483;-47
2023/12/09 15:11:31;;;;;;;3.38;0.52;;;8.00;99.90;;;;;;20728136;28;20080;-47
2023/12/09 15:21:31;;;;;;;1.05;0.50;;;8.00;99.90;;;;;;20745839;28;20060;-47
2023/12/09 15:31:32;;;;;;;1.38;0.38;;;8.00;99.90;;;;;;20741584;28;20531;-48
2023/12/09 15:41:33;;;;;;;1.52;0.77;;;8.10;99.90;;;;;;20742776;28;20049;-48
2023/12/09 15:51:33;;;;;;;2.97;1.13;;;8.10;99.90;;;;;;20743565;28;20038;-48
2023/12/09 16:01:34;;;;;;;3.78;1.05;;;8.10;99.90;;;;;;20744369;28;20041;-48
2023/12/09 16:11:34;;;;;;;1.88;1.20;;;8.10;99.90;;;;;;20743640;28;20412;-48
2023/12/09 16:21:35;;;;;;;1.98;1.40;;;8.20;99.90;;;;;;20742718;28;20072;-49
2023/12/09 16:31:36;;;;;;;2.33;1.55;;;8.10;99.90;;;;;;20740896;28;20042;-49
2023/12/09 16:41:36;;;;;;;2.88;2.10;;;8.30;99.90;;;;;;20741332;28;20049;-49
2023/12/09 16:51:37;;;;;;;4.13;2.35;;;8.30;99.90;;;;;;20749260;28;20053;-49
2023/12/09 17:01:38;;;;;;;4.82;3.15;;;8.50;99.90;;;;;;20753147;28;20494;-48
2023/12/09 17:11:38;;;;;;;8.05;4.50;;;8.60;99.90;;;;;;20752215;28;20108;-48
2023/12/09 17:21:39;;;;;;;7.32;5.03;;;8.60;99.90;;;;;;20755091;28;20072;-48
2023/12/09 17:31:39;;;;;;;9.25;6.65;;;8.70;99.90;;;;;;20751507;28;20045;-48
2023/12/09 17:41:40;;;;;;;11.85;8.30;;;8.80;99.90;;;;;;20752830;28;20042;-48
2023/12/09 17:51:41;;;;;;;15.38;10.15;;;9.00;99.90;;;;;;20753760;28;20044;-46
2023/12/09 18:01:42;;;;;;;18.52;10.00;;;9.40;99.90;;;;;;20745397;28;20057;-47
2023/12/09 18:11:43;;;;;;;15.10;5.57;;;10.00;99.90;;;;;;20754578;28;20045;-46
2023/12/09 18:21:43;;;;;;;17.73;3.92;;;10.60;99.90;;;;;;20750061;28;20049;-46
2023/12/09 18:31:44;;;;;;;18.67;3.53;;;10.80;99.90;;;;;;20749652;28;20501;-46
2023/12/09 18:41:45;;;;;;;27.88;3.72;;;10.80;99.90;;;;;;20748141;28;20037;-46
2023/12/09 18:51:45;;;;;;;31.17;4.15;;;10.60;99.90;;;;;;20728065;28;20037;-45
2023/12/09 19:01:46;;;;;;;28.20;3.78;;;10.50;99.90;;;;;;20744782;28;20448;-45
2023/12/09 19:11:46;;;;;;;24.88;4.00;;;10.20;99.90;;;;;;20742415;28;20045;-48
2023/12/09 19:21:47;;;;;;;28.35;4.65;;;10.00;99.90;;;;;;20743389;28;20034;-46
2023/12/09 19:31:47;;;;;;;25.17;3.95;;;9.70;95.50;;;;;;20741951;28;20038;-46
2023/12/09 19:41:48;;;;;;;26.50;5.13;;;9.60;81.80;;;;;;20722302;28;20091;-45
2023/12/09 19:51:48;;;;;;;27.48;6.60;;;9.50;66.70;;;;;;20743254;28;20049;-46
2023/12/09 20:01:49;;;;;;;19.48;3.47;;;9.50;61.20;;;;;;20738617;28;20144;-46
2023/12/09 20:11:49;;;;;;;19.55;4.78;;;9.60;39.30;;;;;;20739335;28;20464;-46
2023/12/09 20:21:50;;;;;;;22.95;2.78;;;9.60;31.70;;;;;;20749035;28;20041;-46
2023/12/09 20:31:50;;;;;;;28.05;5.53;;;9.80;12.70;;;;;;20756908;28;20663;-46
2023/12/09 20:41:51;;;;;;;21.67;3.00;;;9.80;18.50;;;;;;20756159;28;20102;-48
2023/12/09 20:51:52;;;;;;;21.13;3.22;;;9.90;6.90;;;;;;20747995;28;20406;-46
2023/12/09 21:01:54;;;;;;;23.05;3.50;;;9.90;8.10;;;;;;20752198;28;20708;-46
2023/12/09 21:11:55;;;;;;;28.70;4.65;;;10.00;2.30;;;;;;20752194;28;20369;-46
2023/12/09 21:21:55;;;;;;;22.95;3.78;;;9.80;8.80;;;;;;20740102;28;20103;-46
2023/12/09 21:31:56;;;;;;;24.10;3.28;;;9.90;1.00;;;;;;20753644;28;20046;-46
2023/12/09 21:41:56;;;;;;;19.38;3.95;;;9.90;1.00;;;;;;20747790;28;20041;-46
2023/12/09 21:51:57;;;;;;;19.20;3.13;;;9.70;1.00;;;;;;20751067;28;20042;-46
2023/12/09 22:01:59;;;;;;;19.00;4.05;;;9.60;1.00;;;;;;20747902;28;20078;-49
2023/12/09 22:12:00;;;;;;;24.10;5.63;;;9.60;1.00;;;;;;20749625;28;20176;-46
2023/12/09 22:22:00;;;;;;;23.05;3.42;;;9.60;1.00;;;;;;20751696;28;20037;-48
2023/12/09 22:32:01;;;;;;;21.83;3.20;;;9.80;1.00;;;;;;20750621;28;20038;-48
2023/12/09 22:42:01;;;;;;;23.42;4.25;;;9.90;1.00;;;;;;20747106;28;20143;-49
2023/12/09 22:52:02;;;;;;;25.77;3.92;;;9.90;1.00;;;;;;20745733;28;20153;-48
2023/12/09 23:02:05;;;;;;;19.85;3.42;;;10.00;1.00;;;;;;20745937;28;20119;-48
2023/12/09 23:12:06;;;;;;;26.85;3.70;;;10.30;1.00;;;;;;20744921;28;20120;-46
2023/12/09 23:22:06;;;;;;;23.27;3.22;;;10.30;1.00;;;;;;20745540;28;20046;-46
2023/12/09 23:32:07;;;;;;;26.23;3.78;;;10.40;1.00;;;;;;20742336;28;20444;-49
2023/12/09 23:42:07;;;;;;;22.70;3.63;;;10.50;1.00;;;;;;20739409;28;20057;-49
2023/12/09 23:52:08;;;;;;;21.33;3.50;;;10.50;1.00;;;;;;20738836;28;20042;-46
